createdAt,value
2022-10-26T00:01:58.340Z,10.6
2022-10-26T00:07:09.246Z,10.6
2022-10-26T00:12:21.376Z,10.7
2022-10-26T00:17:34.485Z,10.8
2022-10-26T00:22:45.762Z,10.9
2022-10-26T00:27:58.525Z,11
2022-10-26T00:33:11.407Z,11.3
2022-10-26T00:43:41.547Z,11.3
2022-10-26T00:48:52.539Z,11.3
2022-10-26T00:59:24.006Z,11
2022-10-26T01:04:37.450Z,11
2022-10-26T01:09:48.827Z,11.1
2022-10-26T01:15:01.048Z,11.3
2022-10-26T01:20:12.405Z,11.4
2022-10-26T01:30:42.714Z,11.2
2022-10-26T01:35:54.171Z,11.3
2022-10-26T01:41:07.261Z,11.4
2022-10-26T01:57:06.482Z,11.4
2022-10-26T02:02:18.390Z,11.2
2022-10-26T02:07:28.004Z,11
2022-10-26T02:18:01.538Z,11.1
2022-10-26T02:23:12.482Z,11.3
2022-10-26T02:44:28.947Z,11.1
2022-10-26T02:55:03.458Z,11.1
2022-10-26T03:00:15.718Z,11.1
2022-10-26T03:05:28.828Z,11
2022-10-26T03:10:41.858Z,10.9
2022-10-26T03:15:51.395Z,10.9
2022-10-26T03:21:03.550Z,10.9
2022-10-26T03:26:15.959Z,10.9
2022-10-26T03:36:48.587Z,10.8
2022-10-26T03:42:00.989Z,10.8
2022-10-26T03:47:12.332Z,10.6
2022-10-26T03:52:22.511Z,11.2
2022-10-26T03:57:34.568Z,11.8
2022-10-26T04:02:48.114Z,12.8
2022-10-26T04:13:21.476Z,12.9
2022-10-26T04:18:32.061Z,12.6
2022-10-26T04:23:43.057Z,12.3
2022-10-26T04:28:53.251Z,12.1
2022-10-26T04:34:08.094Z,12.1
2022-10-26T04:44:42.544Z,12.5
2022-10-26T04:49:55.492Z,12.6
2022-10-26T04:55:05.315Z,12.4
2022-10-26T05:00:17.192Z,12.2
2022-10-26T05:05:28.235Z,12.4
2022-10-26T05:10:44.067Z,12.2
2022-10-26T05:15:51.050Z,12
2022-10-26T05:21:02.074Z,11.9
2022-10-26T05:36:57.603Z,12
2022-10-26T05:47:30.712Z,12
2022-10-26T05:58:05.902Z,12
2022-10-26T06:03:16.056Z,12.7
2022-10-26T06:08:27.768Z,12.9
2022-10-26T06:13:37.700Z,12.9
2022-10-26T06:24:11.224Z,13.1
2022-10-26T06:34:46.545Z,13.1
2022-10-26T06:45:20.371Z,13.4
2022-10-26T07:06:39.819Z,13.6
2022-10-26T07:17:10.835Z,13.7
2022-10-26T07:22:24.030Z,13.7
2022-10-26T07:27:38.250Z,13.7
2022-10-26T07:32:52.092Z,13.7
2022-10-26T07:53:55.655Z,13.7
2022-10-26T08:04:29.047Z,13.9
2022-10-26T08:09:40.977Z,13.9
2022-10-26T08:25:37.129Z,13.9
2022-10-26T08:30:48.592Z,14
2022-10-26T08:36:01.496Z,13.9
2022-10-26T08:41:12.263Z,13.8
2022-10-26T08:46:24.115Z,13.7
2022-10-26T08:51:34.216Z,13.7
2022-10-26T08:56:51.206Z,13.7
2022-10-26T09:01:58.918Z,14
2022-10-26T09:07:10.117Z,13.9
2022-10-26T09:23:05.742Z,14
2022-10-26T09:28:17.236Z,14
2022-10-26T09:33:30.706Z,14.1
2022-10-26T09:38:42.419Z,14.2
2022-10-26T09:43:55.108Z,14.3
2022-10-26T09:49:07.071Z,14.4
2022-10-26T09:54:19.136Z,14.4
2022-10-26T09:59:31.206Z,14.6
2022-10-26T10:04:43.400Z,14.7
2022-10-26T10:09:59.520Z,14.7
2022-10-26T10:15:12.188Z,14.9
2022-10-26T10:20:23.777Z,15
2022-10-26T10:25:36.332Z,15.7
2022-10-26T10:30:50.941Z,15.9
2022-10-26T10:36:06.849Z,15.9
2022-10-26T10:46:41.616Z,16.1
2022-10-26T10:57:26.708Z,17.2
2022-10-26T11:02:36.613Z,17.5
2022-10-26T11:07:54.125Z,17.5
2022-10-26T11:23:50.500Z,18.7
2022-10-26T11:34:33.639Z,19
2022-10-26T11:39:42.693Z,19.4
2022-10-26T11:55:35.276Z,18.3
2022-10-26T12:11:29.560Z,17.9
2022-10-26T12:22:04.194Z,17.8
2022-10-26T12:27:18.756Z,17.8
2022-10-26T12:43:15.228Z,17.9
2022-10-26T12:48:40.174Z,17.9
2022-10-26T13:04:28.138Z,18.7
2022-10-26T13:09:44.996Z,18.7
2022-10-26T13:14:58.064Z,20.1
2022-10-26T13:20:10.214Z,20.2
2022-10-26T13:25:23.081Z,20.3
2022-10-26T13:36:00.046Z,20.3
2022-10-26T13:46:37.881Z,21.4
2022-10-26T13:51:54.241Z,21.4
2022-10-26T13:57:11.315Z,21.4
2022-10-26T14:07:43.547Z,20.8
2022-10-26T14:23:53.308Z,20.8
2022-10-26T14:29:09.793Z,22
2022-10-26T14:34:21.464Z,21.8
2022-10-26T14:45:01.583Z,21.8
2022-10-26T14:50:17.863Z,21.8
2022-10-26T14:55:29.434Z,21.6
2022-10-26T15:11:36.574Z,21.6
2022-10-26T15:16:50.772Z,21.5
2022-10-26T15:21:56.493Z,20.2
2022-10-26T15:37:59.854Z,19.8
2022-10-26T15:53:54.558Z,18.7
2022-10-26T15:59:05.884Z,18.4
2022-10-26T16:04:21.590Z,18.4
2022-10-26T16:20:15.675Z,17.5
2022-10-26T16:31:00.620Z,17
2022-10-26T16:36:07.462Z,17
2022-10-26T16:41:22.823Z,17
2022-10-26T16:46:35.248Z,16.3
2022-10-26T17:02:31.091Z,15.7
2022-10-26T17:07:45.664Z,15.7
2022-10-26T17:13:27.753Z,15.7
2022-10-26T17:23:54.276Z,15.1
2022-10-26T17:29:05.029Z,14.6
2022-10-26T17:34:21.266Z,14.6
2022-10-26T17:44:56.398Z,14.4
2022-10-26T17:50:07.813Z,14.2
2022-10-26T18:00:38.510Z,13.8
2022-10-26T18:05:51.429Z,13.8
2022-10-26T18:11:06.481Z,13.8
2022-10-26T18:16:21.599Z,13.8
2022-10-26T18:21:38.169Z,13.8
2022-10-26T18:26:50.450Z,14.6
2022-10-26T18:37:28.101Z,14.6
2022-10-26T18:42:38.740Z,14.2
2022-10-26T18:47:58.473Z,14.2
2022-10-26T18:53:08.952Z,13.7
2022-10-26T18:58:21.390Z,13.9
2022-10-26T19:03:33.324Z,14
2022-10-26T19:08:45.550Z,13.8
2022-10-26T19:13:57.741Z,13.6
2022-10-26T19:19:09.609Z,13.3
2022-10-26T19:24:21.825Z,13.1
2022-10-26T19:29:32.109Z,12.9
2022-10-26T19:45:25.806Z,13
2022-10-26T19:50:36.855Z,13
2022-10-26T19:55:51.142Z,13
2022-10-26T20:11:46.977Z,12.6
2022-10-26T20:16:59.569Z,12.4
2022-10-26T20:22:11.167Z,12.3
2022-10-26T20:27:23.507Z,12.4
2022-10-26T20:32:35.208Z,12.4
2022-10-26T20:37:47.847Z,12.4
2022-10-26T20:48:19.021Z,12.2
2022-10-26T20:53:30.003Z,12.1
2022-10-26T20:58:45.849Z,12.1
2022-10-26T21:14:44.399Z,11.9
2022-10-26T21:19:51.304Z,11.9
2022-10-26T21:25:07.280Z,11.9
2022-10-26T21:35:45.893Z,11.9
2022-10-26T21:41:06.501Z,11.5
2022-10-26T21:46:07.863Z,11.4
2022-10-26T21:51:20.041Z,11.6
2022-10-26T21:56:31.663Z,11.7
2022-10-26T22:01:46.611Z,11.7
2022-10-26T22:12:18.229Z,11.2
2022-10-26T22:17:30.337Z,11.1
2022-10-26T22:22:41.966Z,11
2022-10-26T22:33:15.473Z,11.3
2022-10-26T22:38:25.670Z,11.4
2022-10-26T22:43:37.646Z,11.4
2022-10-26T22:54:11.040Z,10.8
2022-10-26T22:59:28.550Z,10.8
2022-10-26T23:04:41.359Z,11.2
2022-10-26T23:09:53.201Z,11.2
2022-10-26T23:20:30.990Z,11.2
2022-10-26T23:31:09.208Z,10.6
2022-10-26T23:36:16.507Z,10.4
2022-10-26T23:41:29.289Z,10.2
2022-10-26T23:51:59.415Z,10.6
2022-10-26T23:57:11.863Z,10.4
